Time;durP1;ratioP1;P1;durP2;ratioP2;P2;SDS_P1;SDS_P2;PMS_P1;PMS_P2;Temp;Humidity;BMP_temperature;BMP_pressure;BME280_temperature;BME280_humidity;BME280_pressure;Samples;Min_cycle;Max_cycle;Signal;HPM_P1;HPM_P2
2023/03/23 00:01:49;;;;;;;1.40;0.80;;;15.30;89.80;;;;;;5052859;28;20115;-66
2023/03/23 00:04:16;;;;;;;2.78;1.00;;;15.40;89.30;;;;;;5069676;28;20021;-67
2023/03/23 00:06:42;;;;;;;1.45;0.77;;;15.50;88.90;;;;;;5052692;28;20052;-67
2023/03/23 00:09:09;;;;;;;2.80;1.15;;;15.40;89.20;;;;;;5054272;28;20103;-66
2023/03/23 00:11:34;;;;;;;2.65;1.00;;;15.40;89.10;;;;;;5054141;28;20117;-67
2023/03/23 00:14:02;;;;;;;3.70;0.80;;;15.40;89.00;;;;;;5052273;28;20108;-66
2023/03/23 00:16:31;;;;;;;2.15;1.10;;;15.40;88.60;;;;;;5053644;28;20263;-67
2023/03/23 00:19:06;;;;;;;2.35;1.10;;;15.40;88.60;;;;;;5067204;28;20107;-67
2023/03/23 00:21:34;;;;;;;1.67;0.90;;;15.30;88.60;;;;;;5073712;28;20365;-67
2023/03/23 00:24:00;;;;;;;1.08;0.75;;;15.40;88.40;;;;;;5072264;28;20064;-67
2023/03/23 00:26:29;;;;;;;2.13;0.80;;;15.50;88.20;;;;;;5070963;28;20107;-67
2023/03/23 00:28:55;;;;;;;1.92;1.10;;;15.50;88.00;;;;;;5072199;28;20497;-67
2023/03/23 00:31:20;;;;;;;2.72;1.08;;;15.50;87.80;;;;;;5071981;28;20032;-67
2023/03/23 00:33:46;;;;;;;1.85;1.17;;;15.60;87.80;;;;;;5073654;28;20128;-66
2023/03/23 00:36:12;;;;;;;2.47;1.00;;;15.60;87.50;;;;;;5073466;28;20021;-66
2023/03/23 00:38:39;;;;;;;0.85;0.63;;;15.60;87.50;;;;;;5071985;28;20112;-66
2023/03/23 00:41:05;;;;;;;1.90;1.00;;;15.60;87.40;;;;;;5071762;28;20025;-67
2023/03/23 00:43:35;;;;;;;1.42;0.90;;;15.70;87.20;;;;;;5073427;28;20037;-67
2023/03/23 00:46:01;;;;;;;1.75;0.90;;;15.60;87.20;;;;;;5073171;28;20493;-66
2023/03/23 00:48:29;;;;;;;1.80;0.77;;;15.70;87.10;;;;;;5046853;28;20437;-66
2023/03/23 00:50:55;;;;;;;1.70;1.00;;;15.70;87.00;;;;;;5034907;28;20042;-66
2023/03/23 00:53:21;;;;;;;2.17;1.00;;;15.60;87.10;;;;;;5038301;28;20026;-66
2023/03/23 00:55:48;;;;;;;2.20;0.93;;;15.60;87.00;;;;;;5036230;28;20029;-68
2023/03/23 00:58:15;;;;;;;1.85;0.85;;;15.70;86.80;;;;;;5037249;28;20386;-69
2023/03/23 01:00:41;;;;;;;1.55;1.00;;;15.60;86.90;;;;;;5035919;28;20076;-69
2023/03/23 01:03:08;;;;;;;1.50;1.02;;;15.60;87.10;;;;;;5035680;28;20017;-68
2023/03/23 01:05:35;;;;;;;1.30;0.90;;;15.60;87.10;;;;;;5035982;28;20025;-69
2023/03/23 01:08:01;;;;;;;1.55;0.85;;;15.70;87.10;;;;;;5037080;28;20032;-69
2023/03/23 01:10:27;;;;;;;;;;;15.70;87.10;;;;;;5037797;28;20013;-67
2023/03/23 01:12:53;;;;;;;1.88;0.90;;;15.70;87.20;;;;;;5037076;28;19909;-69
2023/03/23 01:15:19;;;;;;;3.53;0.93;;;15.80;87.10;;;;;;5052203;28;20025;-68
2023/03/23 01:17:45;;;;;;;2.50;0.85;;;15.70;87.20;;;;;;5050320;28;20542;-69
2023/03/23 01:20:15;;;;;;;1.67;1.25;;;15.80;87.10;;;;;;5078482;28;20020;-69
2023/03/23 01:22:41;;;;;;;2.00;1.10;;;15.70;87.20;;;;;;5077682;28;20020;-67
2023/03/23 01:25:07;;;;;;;;;;;15.80;87.20;;;;;;5077690;28;20473;-68
2023/03/23 01:27:32;;;;;;;1.13;0.82;;;15.90;87.10;;;;;;5076800;28;19915;-69
2023/03/23 01:29:58;;;;;;;1.87;0.90;;;15.80;86.90;;;;;;5076734;28;20029;-68
2023/03/23 01:32:24;;;;;;;2.07;1.13;;;15.90;86.70;;;;;;5075018;28;20114;-67
2023/03/23 01:34:49;;;;;;;1.85;1.00;;;15.90;86.70;;;;;;5075007;28;20031;-68
2023/03/23 01:37:15;;;;;;;1.90;1.15;;;15.90;86.50;;;;;;5075096;28;20124;-68
2023/03/23 01:39:41;;;;;;;1.88;0.80;;;15.90;86.60;;;;;;5076295;28;20024;-68
2023/03/23 01:42:08;;;;;;;3.45;0.95;;;15.90;86.40;;;;;;5076359;28;20033;-68
2023/03/23 01:44:34;;;;;;;1.45;0.90;;;15.90;86.50;;;;;;5076299;28;20360;-68
2023/03/23 01:47:00;;;;;;;1.92;1.10;;;16.00;86.10;;;;;;5076676;28;20025;-67
2023/03/23 01:49:31;;;;;;;1.45;1.13;;;16.10;85.90;;;;;;5076658;28;20032;-69
2023/03/23 01:52:01;;;;;;;1.40;0.82;;;16.00;85.60;;;;;;5076474;28;20055;-68
2023/03/23 01:54:27;;;;;;;2.05;1.05;;;16.10;85.50;;;;;;5076820;28;20029;-69
2023/03/23 01:57:03;;;;;;;2.38;1.00;;;16.20;85.90;;;;;;5076451;28;20032;-68
2023/03/23 01:59:31;;;;;;;1.85;1.20;;;16.20;85.20;;;;;;5075745;28;20040;-68
2023/03/23 02:01:56;;;;;;;2.33;1.10;;;16.30;85.00;;;;;;5075785;28;20388;-68
2023/03/23 02:04:24;;;;;;;2.63;1.20;;;16.30;85.00;;;;;;5075690;28;20025;-68
2023/03/23 02:06:51;;;;;;;1.25;0.85;;;16.30;85.00;;;;;;5064048;28;20025;-67
2023/03/23 02:09:17;;;;;;;3.10;1.10;;;16.30;85.10;;;;;;5054531;28;20025;-67
2023/03/23 02:11:44;;;;;;;2.90;1.00;;;16.30;85.40;;;;;;5055975;28;20108;-67
2023/03/23 02:14:09;;;;;;;2.83;1.00;;;16.30;85.20;;;;;;5055311;28;20384;-68
2023/03/23 02:16:47;;;;;;;2.83;0.90;;;16.40;85.30;;;;;;5055416;28;20113;-69
2023/03/23 02:19:47;;;;;;;2.78;1.20;;;16.30;86.10;;;;;;5057193;28;20029;-68
2023/03/23 02:22:25;;;;;;;2.40;1.13;;;16.00;87.30;;;;;;5053715;28;20025;-68
2023/03/23 02:24:58;;;;;;;1.92;1.10;;;16.00;87.80;;;;;;5055952;28;20146;-68
2023/03/23 02:27:29;;;;;;;1.80;1.00;;;16.00;87.10;;;;;;5054765;28;20130;-69
2023/03/23 02:30:07;;;;;;;2.63;0.93;;;15.90;87.50;;;;;;5055551;28;20032;-69
2023/03/23 02:33:08;;;;;;;1.38;0.90;;;16.10;87.30;;;;;;5055452;28;20025;-68
2023/03/23 02:36:13;;;;;;;1.92;1.17;;;16.00;87.00;;;;;;5055457;28;20021;-67
2023/03/23 02:38:44;;;;;;;2.47;1.33;;;16.10;86.40;;;;;;5053687;28;20021;-68
2023/03/23 02:41:11;;;;;;;1.52;1.20;;;16.10;86.60;;;;;;5055276;28;20021;-68
2023/03/23 02:43:43;;;;;;;1.60;0.93;;;16.20;86.60;;;;;;5055089;28;20335;-67
2023/03/23 02:46:10;;;;;;;2.97;0.98;;;16.10;86.90;;;;;;5053566;28;20032;-69
2023/03/23 02:48:38;;;;;;;1.65;1.00;;;16.20;86.50;;;;;;5055332;28;20502;-68
2023/03/23 02:51:05;;;;;;;2.80;1.10;;;16.20;86.90;;;;;;5054561;28;20040;-68
2023/03/23 02:53:36;;;;;;;3.95;1.17;;;16.20;87.10;;;;;;5054903;28;20541;-68
2023/03/23 02:56:04;;;;;;;2.58;1.00;;;16.10;87.50;;;;;;5054913;28;20029;-68
2023/03/23 02:58:30;;;;;;;2.33;1.20;;;16.20;87.70;;;;;;5053399;28;20017;-68
2023/03/23 03:00:58;;;;;;;1.60;1.10;;;16.20;87.80;;;;;;5053976;28;20035;-68
2023/03/23 03:03:29;;;;;;;1.70;0.98;;;16.20;88.00;;;;;;5053302;28;20032;-67
2023/03/23 03:06:00;;;;;;;2.20;1.08;;;16.10;88.30;;;;;;5054438;28;20472;-67
2023/03/23 03:09:03;;;;;;;3.38;1.30;;;16.00;88.80;;;;;;5054446;28;20039;-68
2023/03/23 03:11:31;;;;;;;1.67;1.02;;;16.00;89.40;;;;;;5014060;28;20037;-69
2023/03/23 03:14:05;;;;;;;1.98;1.13;;;16.10;89.50;;;;;;5012357;28;20068;-68
2023/03/23 03:16:50;;;;;;;1.73;1.13;;;16.00;89.70;;;;;;5012720;28;20034;-68
2023/03/23 03:19:25;;;;;;;2.20;1.10;;;16.00;89.80;;;;;;5012844;28;20044;-69
2023/03/23 03:21:54;;;;;;;2.00;1.10;;;15.90;90.00;;;;;;4996172;28;20042;-68
2023/03/23 03:24:21;;;;;;;1.63;1.20;;;16.00;90.10;;;;;;5012700;28;20117;-68
2023/03/23 03:26:50;;;;;;;3.25;1.48;;;16.10;90.10;;;;;;5012743;28;20025;-68
2023/03/23 03:29:20;;;;;;;3.17;1.17;;;16.10;90.00;;;;;;5013197;28;20037;-68
2023/03/23 03:31:49;;;;;;;2.25;1.25;;;16.20;89.70;;;;;;5013382;28;20026;-68
2023/03/23 03:34:17;;;;;;;2.05;1.30;;;16.30;89.60;;;;;;5013275;28;20404;-68
2023/03/23 03:36:45;;;;;;;2.58;1.40;;;16.20;89.60;;;;;;5012177;28;20022;-69
2023/03/23 03:39:14;;;;;;;4.05;1.63;;;16.20;90.00;;;;;;5012769;28;20569;-69
2023/03/23 03:41:41;;;;;;;2.10;1.10;;;16.10;90.10;;;;;;5015818;28;20156;-69
2023/03/23 03:44:07;;;;;;;;;;;16.00;90.20;;;;;;5013710;28;20378;-68
2023/03/23 03:46:34;;;;;;;2.45;1.23;;;16.00;90.30;;;;;;5012699;28;19905;-67
2023/03/23 03:49:04;;;;;;;2.10;1.30;;;16.10;90.30;;;;;;5052483;28;20025;-69
2023/03/23 03:51:30;;;;;;;2.47;1.17;;;16.00;90.40;;;;;;5053357;28;20052;-68
2023/03/23 03:53:56;;;;;;;3.13;1.27;;;16.00;90.50;;;;;;5052479;28;20163;-69
2023/03/23 03:56:23;;;;;;;2.10;1.27;;;15.90;90.60;;;;;;5054190;28;20075;-68
2023/03/23 03:58:50;;;;;;;1.92;1.20;;;15.90;90.70;;;;;;5053725;28;20032;-68
2023/03/23 04:01:17;;;;;;;2.15;1.13;;;15.90;90.80;;;;;;5053622;28;20028;-68
2023/03/23 04:03:44;;;;;;;2.80;1.42;;;15.90;90.70;;;;;;5053928;28;20103;-69
2023/03/23 04:06:12;;;;;;;4.00;1.15;;;16.00;90.80;;;;;;5053513;28;20166;-68
2023/03/23 04:08:39;;;;;;;2.38;1.60;;;15.90;90.80;;;;;;5053607;28;20071;-69
2023/03/23 04:11:05;;;;;;;3.72;1.75;;;16.00;90.90;;;;;;5053244;28;20025;-69
2023/03/23 04:13:31;;;;;;;2.42;1.05;;;16.10;90.70;;;;;;5052605;28;20016;-68
2023/03/23 04:15:56;;;;;;;3.40;1.40;;;16.10;90.70;;;;;;5053470;28;20504;-68
2023/03/23 04:18:23;;;;;;;3.67;1.27;;;16.00;90.80;;;;;;5051929;28;20454;-68
2023/03/23 04:20:50;;;;;;;2.65;1.30;;;16.10;91.00;;;;;;5052092;28;20259;-68
2023/03/23 04:23:20;;;;;;;2.17;1.30;;;16.00;91.00;;;;;;5053152;28;20029;-69
2023/03/23 04:25:50;;;;;;;2.90;1.30;;;15.90;91.10;;;;;;5064842;28;20069;-69
2023/03/23 04:28:18;;;;;;;3.70;1.48;;;15.90;91.20;;;;;;5072850;28;20370;-68
2023/03/23 04:30:44;;;;;;;4.57;1.42;;;15.90;91.30;;;;;;5071689;28;20538;-69
2023/03/23 04:33:14;;;;;;;2.42;1.40;;;16.00;91.30;;;;;;5071710;28;20021;-68
2023/03/23 04:35:41;;;;;;;3.92;1.52;;;16.00;91.10;;;;;;5071535;28;20047;-68
2023/03/23 04:38:08;;;;;;;4.50;1.50;;;16.00;91.10;;;;;;5069152;28;20021;-69
2023/03/23 04:40:39;;;;;;;1.70;1.20;;;15.90;91.40;;;;;;5051530;28;20124;-68
2023/03/23 04:43:05;;;;;;;2.67;1.30;;;16.00;91.40;;;;;;5052908;28;20135;-68
2023/03/23 04:45:33;;;;;;;2.15;1.30;;;15.90;91.50;;;;;;5052719;28;20429;-68
2023/03/23 04:47:58;;;;;;;2.17;1.20;;;15.90;91.50;;;;;;5052729;28;20488;-68
2023/03/23 04:50:30;;;;;;;2.97;1.27;;;15.90;91.70;;;;;;5053517;28;20096;-68
2023/03/23 04:52:57;;;;;;;2.30;1.30;;;15.90;91.70;;;;;;5052600;28;20025;-68
2023/03/23 04:55:25;;;;;;;1.88;1.20;;;15.90;91.90;;;;;;5051519;28;20435;-68
2023/03/23 04:57:50;;;;;;;6.03;1.70;;;15.80;91.90;;;;;;5053532;28;20075;-68
2023/03/23 05:00:17;;;;;;;6.25;2.10;;;15.80;92.20;;;;;;5051824;28;20032;-68
2023/03/23 05:02:46;;;;;;;5.15;1.63;;;15.80;92.10;;;;;;5052847;28;20056;-68
2023/03/23 05:05:13;;;;;;;2.65;1.38;;;15.80;92.10;;;;;;5051520;28;20029;-67
2023/03/23 05:07:39;;;;;;;3.53;1.40;;;15.80;92.10;;;;;;5051319;28;20029;-69
2023/03/23 05:10:07;;;;;;;3.65;1.42;;;15.70;92.20;;;;;;5053755;28;20492;-68
2023/03/23 05:12:33;;;;;;;3.72;1.60;;;15.70;93.10;;;;;;5052642;28;20438;-68
2023/03/23 05:14:58;;;;;;;3.05;1.23;;;15.70;93.90;;;;;;5052993;28;20059;-68
2023/03/23 05:17:24;;;;;;;6.75;1.77;;;15.70;94.00;;;;;;5077356;22;20041;-68
2023/03/23 05:19:51;;;;;;;3.55;1.83;;;15.60;94.70;;;;;;5072719;28;20405;-68
2023/03/23 05:22:17;;;;;;;2.45;1.70;;;15.50;95.30;;;;;;5054041;28;20071;-67
2023/03/23 05:24:42;;;;;;;4.80;1.67;;;15.40;95.70;;;;;;5073097;28;20392;-68
2023/03/23 05:27:11;;;;;;;2.97;1.50;;;15.40;95.70;;;;;;5073583;28;20033;-69
2023/03/23 05:29:37;;;;;;;5.05;1.60;;;15.40;95.90;;;;;;5073143;28;20790;-66
2023/03/23 05:32:04;;;;;;;2.75;1.60;;;15.30;96.00;;;;;;5053951;28;20119;-66
2023/03/23 05:34:32;;;;;;;3.28;1.73;;;15.30;96.10;;;;;;5072692;28;20020;-65
2023/03/23 05:36:59;;;;;;;3.42;1.60;;;15.20;96.30;;;;;;5073771;28;20051;-65
2023/03/23 05:39:25;;;;;;;3.08;1.67;;;15.20;97.40;;;;;;5076467;28;20422;-65
2023/03/23 05:41:51;;;;;;;3.50;1.77;;;15.20;96.80;;;;;;5058475;28;20115;-65
2023/03/23 05:44:17;;;;;;;6.97;2.70;;;15.00;97.70;;;;;;5058637;28;20031;-68
2023/03/23 05:46:43;;;;;;;3.58;1.60;;;15.10;97.50;;;;;;5076960;28;20028;-67
2023/03/23 05:49:08;;;;;;;3.13;1.60;;;15.00;97.40;;;;;;5054887;28;20033;-67
2023/03/23 05:51:34;;;;;;;10.32;2.13;;;15.10;97.80;;;;;;5056494;28;20119;-67
2023/03/23 05:54:00;;;;;;;4.75;2.00;;;15.10;98.60;;;;;;5056685;28;20021;-67
2023/03/23 05:56:26;;;;;;;4.97;1.88;;;15.10;99.20;;;;;;5056431;28;20056;-67
2023/03/23 05:58:52;;;;;;;3.47;1.80;;;15.10;99.80;;;;;;5066580;28;20425;-66
2023/03/23 06:01:17;;;;;;;;;;;15.00;99.10;;;;;;5076243;28;20055;-65
2023/03/23 06:03:44;;;;;;;4.70;1.83;;;15.00;99.90;;;;;;5076070;28;19940;-67
2023/03/23 06:06:11;;;;;;;6.63;2.00;;;14.90;99.50;;;;;;5058023;28;20028;-67
2023/03/23 06:08:37;;;;;;;3.47;2.20;;;15.00;99.90;;;;;;5075770;28;20511;-69
2023/03/23 06:11:03;;;;;;;;;;;15.00;99.60;;;;;;5058499;28;20443;-68
2023/03/23 06:13:29;;;;;;;5.15;1.65;;;15.00;99.60;;;;;;5058920;28;20347;-68
2023/03/23 06:15:57;;;;;;;3.83;1.80;;;14.90;99.70;;;;;;5037685;28;20112;-67
2023/03/23 06:18:24;;;;;;;4.25;1.90;;;14.90;99.90;;;;;;5037727;28;20497;-66
2023/03/23 06:20:50;;;;;;;;;;;14.80;99.90;;;;;;5056146;28;20473;-68
2023/03/23 06:23:17;;;;;;;4.35;1.88;;;14.70;99.90;;;;;;5037872;28;19911;-68
2023/03/23 06:25:43;;;;;;;4.25;2.00;;;14.70;99.90;;;;;;5056953;28;20024;-68
2023/03/23 06:28:09;;;;;;;3.90;2.00;;;14.70;99.90;;;;;;5075721;28;20481;-68
2023/03/23 06:30:36;;;;;;;3.45;2.20;;;14.60;99.90;;;;;;5076046;28;20036;-69
2023/03/23 06:33:05;;;;;;;3.33;2.00;;;14.40;99.90;;;;;;5041624;28;20036;-69
2023/03/23 06:35:31;;;;;;;4.55;1.95;;;14.40;99.90;;;;;;5059469;28;20033;-69
2023/03/23 06:38:01;;;;;;;3.65;1.73;;;14.40;99.90;;;;;;5059232;28;20029;-68
2023/03/23 06:40:27;;;;;;;4.20;2.10;;;14.40;99.90;;;;;;5059895;28;20048;-68
2023/03/23 06:42:53;;;;;;;;;;;14.50;99.90;;;;;;5061533;28;20020;-69
2023/03/23 06:45:19;;;;;;;5.60;2.35;;;14.60;99.90;;;;;;5066354;28;19913;-68
2023/03/23 06:47:48;;;;;;;3.17;1.88;;;14.70;99.90;;;;;;5072683;28;20078;-69
2023/03/23 06:50:15;;;;;;;2.55;2.03;;;14.70;99.90;;;;;;5075612;28;20028;-69
2023/03/23 06:52:40;;;;;;;2.90;1.80;;;14.70;99.90;;;;;;5075097;28;20101;-67
2023/03/23 06:55:06;;;;;;;4.53;2.30;;;14.60;99.90;;;;;;5075370;28;20044;-67
2023/03/23 06:57:32;;;;;;;2.83;2.00;;;14.60;99.90;;;;;;5074707;28;20032;-67
2023/03/23 06:59:58;;;;;;;4.77;2.00;;;14.50;99.90;;;;;;5075125;28;20123;-67
2023/03/23 07:02:23;;;;;;;4.57;1.63;;;14.60;99.90;;;;;;5056082;28;20255;-67
2023/03/23 07:04:49;;;;;;;4.32;2.10;;;14.60;99.90;;;;;;5074934;28;20103;-66
2023/03/23 07:07:18;;;;;;;4.63;2.17;;;14.60;99.90;;;;;;5056776;28;20056;-66
2023/03/23 07:09:44;;;;;;;4.05;1.83;;;14.60;99.90;;;;;;5057704;28;20027;-68
2023/03/23 07:12:09;;;;;;;4.28;1.98;;;14.50;99.90;;;;;;5075081;28;20047;-68
2023/03/23 07:14:36;;;;;;;8.17;2.27;;;14.60;99.90;;;;;;5075361;28;20540;-68
2023/03/23 07:17:02;;;;;;;;;;;14.50;99.90;;;;;;5075208;28;20095;-68
2023/03/23 07:19:28;;;;;;;3.67;1.90;;;14.50;99.90;;;;;;5056436;28;19962;-67
2023/03/23 07:21:54;;;;;;;4.90;1.98;;;14.40;99.90;;;;;;5074893;28;20024;-68
2023/03/23 07:24:20;;;;;;;5.15;2.80;;;14.40;99.90;;;;;;5074676;28;20056;-68
2023/03/23 07:26:45;;;;;;;5.15;2.00;;;14.20;99.90;;;;;;5067296;28;20037;-67
2023/03/23 07:29:11;;;;;;;5.80;2.10;;;14.20;99.90;;;;;;5036352;28;20048;-68
2023/03/23 07:31:37;;;;;;;5.47;2.10;;;14.20;99.90;;;;;;5054060;28;20031;-67
2023/03/23 07:34:03;;;;;;;6.93;2.10;;;14.40;99.90;;;;;;5036362;28;20031;-67
2023/03/23 07:36:30;;;;;;;8.43;2.40;;;14.40;99.90;;;;;;5036609;28;20093;-68
2023/03/23 07:38:56;;;;;;;4.05;2.00;;;14.40;99.90;;;;;;5036875;28;20499;-68
2023/03/23 07:41:22;;;;;;;4.32;1.80;;;14.40;99.90;;;;;;5036175;28;20029;-67
2023/03/23 07:43:47;;;;;;;4.53;2.00;;;14.50;99.90;;;;;;5064336;28;20420;-68
2023/03/23 07:46:13;;;;;;;4.47;1.97;;;14.50;99.90;;;;;;5074722;28;20482;-68
2023/03/23 07:48:39;;;;;;;5.38;2.17;;;14.70;99.90;;;;;;5074457;28;20338;-68
2023/03/23 07:51:06;;;;;;;4.85;2.53;;;14.70;99.90;;;;;;5062284;28;20591;-67
2023/03/23 07:53:33;;;;;;;4.93;2.30;;;14.70;99.90;;;;;;5056090;28;20027;-66
2023/03/23 07:55:58;;;;;;;4.13;1.83;;;14.70;99.90;;;;;;5073831;28;20021;-68
2023/03/23 07:58:25;;;;;;;3.07;1.70;;;14.70;99.90;;;;;;5073841;28;20048;-68
2023/03/23 08:00:52;;;;;;;3.83;1.90;;;14.70;99.90;;;;;;5059309;28;20491;-67
2023/03/23 08:03:18;;;;;;;3.53;1.98;;;14.60;99.90;;;;;;5062884;28;20112;-68
2023/03/23 08:05:43;;;;;;;2.70;1.55;;;14.50;99.90;;;;;;5062959;28;20063;-68
2023/03/23 08:08:10;;;;;;;3.17;1.98;;;14.70;99.90;;;;;;5068931;28;20043;-68
2023/03/23 08:10:36;;;;;;;3.42;2.05;;;14.80;99.90;;;;;;5036795;28;20021;-67
2023/03/23 08:13:02;;;;;;;;;;;14.90;99.90;;;;;;5074420;28;20511;-68
2023/03/23 08:15:28;;;;;;;4.82;2.40;;;15.10;99.90;;;;;;5074108;28;19904;-66
2023/03/23 08:17:54;;;;;;;7.55;2.15;;;15.40;99.90;;;;;;5073942;28;20037;-67
2023/03/23 08:20:22;;;;;;;3.45;2.03;;;15.30;99.90;;;;;;5073853;28;20032;-68
2023/03/23 08:22:54;;;;;;;3.78;1.63;;;15.20;99.90;;;;;;5056146;28;20025;-68
2023/03/23 08:25:20;;;;;;;4.70;1.42;;;15.50;99.90;;;;;;5073190;28;20020;-68
2023/03/23 08:27:46;;;;;;;2.20;1.65;;;15.60;99.90;;;;;;5055459;28;20426;-68
2023/03/23 08:30:15;;;;;;;2.65;1.77;;;15.80;99.90;;;;;;5073554;28;20115;-69
2023/03/23 08:32:42;;;;;;;2.00;1.20;;;15.80;99.90;;;;;;5073911;28;20179;-67
2023/03/23 08:35:09;;;;;;;3.58;2.42;;;16.00;99.90;;;;;;5074051;28;20096;-68
2023/03/23 08:37:35;;;;;;;2.83;1.35;;;16.20;99.90;;;;;;5074725;28;20023;-67
2023/03/23 08:40:07;;;;;;;;;;;16.60;99.90;;;;;;5057782;28;20025;-67
2023/03/23 08:42:33;;;;;;;4.38;2.00;;;17.10;99.90;;;;;;5056478;28;19931;-68
2023/03/23 08:44:58;;;;;;;3.00;1.33;;;17.50;99.90;;;;;;5056090;28;20032;-67
2023/03/23 08:47:25;;;;;;;5.30;1.70;;;17.70;99.90;;;;;;5055703;28;20054;-67
2023/03/23 08:49:53;;;;;;;2.22;1.35;;;17.90;99.90;;;;;;5073164;28;20408;-68
2023/03/23 08:52:19;;;;;;;3.10;1.35;;;17.90;99.90;;;;;;5073385;28;20021;-69
2023/03/23 08:54:47;;;;;;;3.45;1.50;;;18.00;99.90;;;;;;5055980;28;20028;-68
2023/03/23 08:57:14;;;;;;;3.35;1.55;;;17.90;99.90;;;;;;5055109;28;20124;-68
2023/03/23 08:59:40;;;;;;;2.83;1.20;;;17.70;99.90;;;;;;5073195;28;20024;-66
2023/03/23 09:02:06;;;;;;;2.35;1.38;;;17.40;99.90;;;;;;5073272;28;20052;-68
2023/03/23 09:04:32;;;;;;;2.70;1.77;;;17.20;99.90;;;;;;5055177;28;20025;-68
2023/03/23 09:06:57;;;;;;;4.17;1.53;;;17.00;99.90;;;;;;5073099;28;20038;-69
2023/03/23 09:09:23;;;;;;;1.98;1.48;;;16.90;99.90;;;;;;5073118;28;20025;-67
2023/03/23 09:11:49;;;;;;;3.30;1.33;;;16.80;99.90;;;;;;5074865;28;20063;-68
2023/03/23 09:14:14;;;;;;;2.50;1.97;;;16.70;99.90;;;;;;5077866;28;20027;-68
2023/03/23 09:16:40;;;;;;;4.83;1.67;;;16.80;99.90;;;;;;5078248;28;20251;-67
2023/03/23 09:19:08;;;;;;;6.00;1.50;;;16.80;99.90;;;;;;5078634;28;20358;-66
2023/03/23 09:21:34;;;;;;;2.67;1.40;;;17.10;99.90;;;;;;5078606;28;20560;-67
2023/03/23 09:24:01;;;;;;;3.87;1.43;;;17.20;99.90;;;;;;5060718;28;20111;-67
2023/03/23 09:26:27;;;;;;;3.72;1.75;;;17.40;99.90;;;;;;5077896;28;20017;-69
2023/03/23 09:28:53;;;;;;;1.98;1.52;;;17.40;99.90;;;;;;5060165;28;20111;-68
2023/03/23 09:31:23;;;;;;;2.92;1.50;;;17.40;99.90;;;;;;5060382;28;20028;-67
2023/03/23 09:33:52;;;;;;;4.70;1.00;;;17.30;99.90;;;;;;5076968;28;20012;-67
2023/03/23 09:36:21;;;;;;;3.05;1.13;;;17.10;99.90;;;;;;5058561;28;20579;-67
2023/03/23 09:38:48;;;;;;;3.97;1.30;;;16.80;99.90;;;;;;5058579;28;20115;-68
2023/03/23 09:41:44;;;;;;;3.10;1.90;;;16.60;99.90;;;;;;5058387;28;20032;-68
2023/03/23 09:44:43;;;;;;;1.73;1.42;;;16.40;99.90;;;;;;5076472;28;20077;-67
2023/03/23 09:47:43;;;;;;;2.55;1.40;;;16.20;99.90;;;;;;5059094;28;20025;-68
2023/03/23 09:50:10;;;;;;;1.60;0.90;;;16.00;99.90;;;;;;5077144;28;20025;-67
2023/03/23 09:52:51;;;;;;;2.53;1.40;;;15.90;99.90;;;;;;5077079;28;20025;-68
2023/03/23 09:55:19;;;;;;;2.83;1.10;;;15.90;99.90;;;;;;5057501;28;20027;-69
2023/03/23 09:57:58;;;;;;;3.47;1.40;;;15.70;99.90;;;;;;5058355;28;20032;-67
2023/03/23 10:00:35;;;;;;;2.22;1.10;;;15.60;99.90;;;;;;5076254;28;20032;-68
2023/03/23 10:03:15;;;;;;;1.80;1.30;;;15.50;99.90;;;;;;5058655;28;20024;-68
2023/03/23 10:05:49;;;;;;;2.47;1.10;;;15.40;99.90;;;;;;5076411;28;20029;-68
2023/03/23 10:08:21;;;;;;;2.30;1.00;;;15.30;99.90;;;;;;5076330;28;20182;-67
2023/03/23 10:11:14;;;;;;;2.67;1.05;;;15.20;99.90;;;;;;5075827;28;20036;-68
2023/03/23 10:14:05;;;;;;;1.63;1.30;;;15.10;99.90;;;;;;5057389;28;20028;-68
2023/03/23 10:16:39;;;;;;;1.25;0.93;;;15.00;99.90;;;;;;5075893;28;20082;-67
2023/03/23 10:19:20;;;;;;;2.00;1.00;;;15.00;99.90;;;;;;5075834;28;20044;-68
2023/03/23 10:21:53;;;;;;;2.67;1.13;;;14.90;99.90;;;;;;5058014;28;20097;-67
2023/03/23 10:24:31;;;;;;;2.13;1.23;;;14.90;99.90;;;;;;5074555;28;20023;-69
2023/03/23 10:27:04;;;;;;;2.63;1.30;;;15.00;99.90;;;;;;5075557;28;20024;-68
2023/03/23 10:30:01;;;;;;;2.22;1.15;;;14.90;99.90;;;;;;5075952;28;20020;-68
2023/03/23 10:32:41;;;;;;;2.38;1.02;;;14.90;99.90;;;;;;5074336;28;20037;-69
2023/03/23 10:35:16;;;;;;;3.92;1.23;;;14.90;99.90;;;;;;5075488;28;20021;-70
2023/03/23 10:37:48;;;;;;;2.28;1.25;;;14.90;99.90;;;;;;5075816;28;20051;-70
2023/03/23 10:40:19;;;;;;;3.22;1.55;;;14.90;99.90;;;;;;5075508;28;20024;-69
2023/03/23 10:42:45;;;;;;;2.15;1.20;;;14.90;99.90;;;;;;5076067;28;20063;-69
2023/03/23 10:45:26;;;;;;;4.57;1.15;;;14.90;99.90;;;;;;5075122;28;20022;-69
2023/03/23 10:48:30;;;;;;;2.33;1.08;;;14.90;99.90;;;;;;5075510;28;20051;-69
2023/03/23 10:50:59;;;;;;;1.98;1.27;;;14.90;99.90;;;;;;5075524;28;20385;-69
2023/03/23 10:53:35;;;;;;;2.58;1.30;;;15.00;99.90;;;;;;5075396;28;20044;-69
2023/03/23 10:56:02;;;;;;;2.75;1.30;;;15.10;99.90;;;;;;5075793;28;20476;-69
2023/03/23 10:58:29;;;;;;;;;;;15.30;99.90;;;;;;5075582;28;20100;-69
2023/03/23 11:00:56;;;;;;;2.72;1.38;;;15.50;99.90;;;;;;5066351;28;20313;-67
2023/03/23 11:03:33;;;;;;;1.73;1.15;;;15.50;99.90;;;;;;5040520;28;20119;-68
2023/03/23 11:06:03;;;;;;;1.52;1.10;;;15.50;99.90;;;;;;5041402;28;20112;-68
2023/03/23 11:08:34;;;;;;;3.65;1.50;;;15.50;99.90;;;;;;5057883;28;20079;-67
2023/03/23 11:11:10;;;;;;;1.95;1.30;;;15.50;99.90;;;;;;5057835;28;20446;-67
2023/03/23 11:13:43;;;;;;;3.63;1.35;;;15.50;99.90;;;;;;5040531;28;20111;-68
2023/03/23 11:16:10;;;;;;;2.38;1.30;;;15.40;99.90;;;;;;5039257;28;20029;-68
2023/03/23 11:18:44;;;;;;;3.55;1.30;;;15.40;99.90;;;;;;5053293;28;20386;-68
2023/03/23 11:21:13;;;;;;;3.53;1.38;;;15.30;99.90;;;;;;5065672;23;20090;-65
2023/03/23 11:23:41;;;;;;;5.22;1.70;;;15.20;99.90;;;;;;5055838;28;20108;-69
2023/03/23 11:26:14;;;;;;;2.58;1.48;;;15.20;99.90;;;;;;5074011;28;20501;-68
2023/03/23 11:28:57;;;;;;;4.57;1.92;;;15.10;99.90;;;;;;5056026;28;20082;-67
2023/03/23 11:31:27;;;;;;;3.88;2.00;;;15.20;99.90;;;;;;5070756;28;20024;-68
2023/03/23 11:34:16;;;;;;;3.08;1.30;;;15.30;99.90;;;;;;5075627;28;20074;-68
2023/03/23 11:36:49;;;;;;;3.88;1.60;;;15.40;99.90;;;;;;5080340;28;20051;-68
2023/03/23 11:39:29;;;;;;;3.78;1.70;;;15.50;99.90;;;;;;5094037;28;20052;-69
2023/03/23 11:41:58;;;;;;;3.95;1.92;;;15.60;99.90;;;;;;5093810;28;20020;-68
2023/03/23 11:44:33;;;;;;;3.78;1.92;;;15.60;99.90;;;;;;5075802;28;20028;-68
2023/03/23 11:47:13;;;;;;;4.28;1.25;;;15.50;99.90;;;;;;5094757;28;20061;-69
2023/03/23 11:50:03;;;;;;;2.95;1.30;;;15.50;99.90;;;;;;5094092;28;20026;-67
2023/03/23 11:53:03;;;;;;;2.85;1.17;;;15.60;99.90;;;;;;5094307;28;20028;-69
2023/03/23 11:55:52;;;;;;;3.28;1.60;;;15.60;99.90;;;;;;5094432;28;20028;-69
2023/03/23 11:58:20;;;;;;;2.90;1.40;;;15.70;99.90;;;;;;5093982;28;20024;-69
2023/03/23 12:01:05;;;;;;;6.60;1.45;;;15.70;99.90;;;;;;5093881;28;20020;-69
2023/03/23 12:03:59;;;;;;;2.20;1.33;;;15.70;99.90;;;;;;5094455;28;20032;-74
2023/03/23 12:06:37;;;;;;;2.60;1.45;;;15.70;99.90;;;;;;5083981;28;20047;-74
2023/03/23 12:09:10;;;;;;;2.80;1.10;;;16.00;99.90;;;;;;5094475;28;20107;-71
2023/03/23 12:11:51;;;;;;;5.15;1.10;;;16.00;99.90;;;;;;5075628;28;20034;-70
2023/03/23 12:14:31;;;;;;;2.15;1.35;;;16.10;99.90;;;;;;5093976;28;20042;-68
2023/03/23 12:17:13;;;;;;;1.83;1.00;;;16.20;99.90;;;;;;5094179;28;20044;-68
2023/03/23 12:19:38;;;;;;;3.38;1.30;;;16.40;99.90;;;;;;5093584;28;20056;-69
2023/03/23 12:22:29;;;;;;;2.33;1.30;;;16.40;99.90;;;;;;5066641;28;20067;-69
2023/03/23 12:25:12;;;;;;;3.40;1.30;;;16.40;99.90;;;;;;5054606;28;20059;-71
2023/03/23 12:27:49;;;;;;;3.60;1.35;;;16.30;99.90;;;;;;5073020;28;20068;-70
2023/03/23 12:30:37;;;;;;;2.60;1.30;;;16.40;99.90;;;;;;5052643;28;20461;-68
2023/03/23 12:33:37;;;;;;;4.57;2.05;;;16.40;99.90;;;;;;5035283;28;20029;-70
2023/03/23 12:36:17;;;;;;;3.53;1.58;;;16.60;99.90;;;;;;5040769;28;20082;-69
2023/03/23 12:38:48;;;;;;;3.30;1.70;;;16.60;99.90;;;;;;5044828;28;20037;-70
2023/03/23 12:41:25;;;;;;;2.00;1.20;;;16.50;99.90;;;;;;5054307;28;20059;-69
2023/03/23 12:43:59;;;;;;;2.05;1.25;;;16.40;99.90;;;;;;5058612;28;20044;-69
2023/03/23 12:46:44;;;;;;;3.42;1.42;;;16.40;99.90;;;;;;5072266;28;20052;-70
2023/03/23 12:49:19;;;;;;;5.28;1.95;;;16.50;99.90;;;;;;5055664;28;20376;-69
2023/03/23 12:52:16;;;;;;;7.03;1.80;;;16.50;99.90;;;;;;5054312;28;20094;-69
2023/03/23 12:54:51;;;;;;;4.60;2.10;;;16.50;99.90;;;;;;5059389;28;20025;-73
2023/03/23 12:57:45;;;;;;;6.25;1.70;;;16.50;99.90;;;;;;5070778;28;20485;-70
2023/03/23 13:00:34;;;;;;;4.22;2.05;;;16.40;99.90;;;;;;5074728;28;20035;-70
2023/03/23 13:03:10;;;;;;;7.22;3.80;;;16.50;99.90;;;;;;5053175;28;20025;-70
2023/03/23 13:05:54;;;;;;;6.93;3.10;;;16.50;99.90;;;;;;5052509;28;20195;-69
2023/03/23 13:08:30;;;;;;;2.75;1.55;;;16.50;99.90;;;;;;5072974;28;20028;-69